sensor_id;sensor_type;location;lat;lon;timestamp;temperature;humidity
1359;DHT22;673;48.098;14.422;2023-04-03T00:01:00;3.70;99.90
1359;DHT22;673;48.098;14.422;2023-04-03T00:03:28;3.60;99.90
1359;DHT22;673;48.098;14.422;2023-04-03T00:05:56;3.50;99.90
1359;DHT22;673;48.098;14.422;2023-04-03T00:08:23;3.60;99.90
1359;DHT22;673;48.098;14.422;2023-04-03T00:10:50;3.60;99.90
1359;DHT22;673;48.098;14.422;2023-04-03T00:13:17;3.50;99.90
1359;DHT22;673;48.098;14.422;2023-04-03T00:15:45;3.50;99.90
1359;DHT22;673;48.098;14.422;2023-04-03T00:18:12;3.60;99.90
1359;DHT22;673;48.098;14.422;2023-04-03T00:20:38;3.50;99.90
1359;DHT22;673;48.098;14.422;2023-04-03T00:23:07;3.50;99.90
1359;DHT22;673;48.098;14.422;2023-04-03T00:25:35;3.50;99.90
1359;DHT22;673;48.098;14.422;2023-04-03T00:28:03;3.50;99.90
1359;DHT22;673;48.098;14.422;2023-04-03T00:30:31;3.50;99.90
1359;DHT22;673;48.098;14.422;2023-04-03T00:32:58;3.50;99.90
1359;DHT22;673;48.098;14.422;2023-04-03T00:35:26;3.50;99.90
1359;DHT22;673;48.098;14.422;2023-04-03T00:37:54;3.50;99.90
1359;DHT22;673;48.098;14.422;2023-04-03T00:40:23;3.50;99.90
1359;DHT22;673;48.098;14.422;2023-04-03T00:42:55;3.60;99.90
1359;DHT22;673;48.098;14.422;2023-04-03T00:45:30;3.70;99.90
1359;DHT22;673;48.098;14.422;2023-04-03T00:47:58;3.60;99.90
1359;DHT22;673;48.098;14.422;2023-04-03T00:50:28;3.50;99.90
1359;DHT22;673;48.098;14.422;2023-04-03T00:52:56;3.40;99.90
1359;DHT22;673;48.098;14.422;2023-04-03T00:55:25;3.50;99.90
1359;DHT22;673;48.098;14.422;2023-04-03T00:57:52;3.50;99.90
1359;DHT22;673;48.098;14.422;2023-04-03T01:00:21;3.50;99.90
1359;DHT22;673;48.098;14.422;2023-04-03T01:02:49;3.50;99.90
1359;DHT22;673;48.098;14.422;2023-04-03T01:05:17;3.40;99.90
1359;DHT22;673;48.098;14.422;2023-04-03T01:07:45;3.40;99.90
1359;DHT22;673;48.098;14.422;2023-04-03T01:10:14;3.40;99.90
1359;DHT22;673;48.098;14.422;2023-04-03T01:12:44;3.40;99.90
1359;DHT22;673;48.098;14.422;2023-04-03T01:15:14;3.40;99.90
1359;DHT22;673;48.098;14.422;2023-04-03T01:17:43;3.40;99.90
1359;DHT22;673;48.098;14.422;2023-04-03T01:20:48;3.40;99.90
1359;DHT22;673;48.098;14.422;2023-04-03T01:23:32;3.40;99.90
1359;DHT22;673;48.098;14.422;2023-04-03T01:26:03;3.30;99.90
1359;DHT22;673;48.098;14.422;2023-04-03T01:28:33;3.40;99.90
1359;DHT22;673;48.098;14.422;2023-04-03T01:31:05;3.40;99.90
1359;DHT22;673;48.098;14.422;2023-04-03T01:33:35;3.40;99.90
1359;DHT22;673;48.098;14.422;2023-04-03T01:36:04;3.40;99.90
1359;DHT22;673;48.098;14.422;2023-04-03T01:38:32;3.40;99.90
1359;DHT22;673;48.098;14.422;2023-04-03T01:40:59;3.40;99.90
1359;DHT22;673;48.098;14.422;2023-04-03T01:43:26;3.40;99.90
1359;DHT22;673;48.098;14.422;2023-04-03T01:45:53;3.40;99.90
1359;DHT22;673;48.098;14.422;2023-04-03T01:48:20;3.30;99.90
1359;DHT22;673;48.098;14.422;2023-04-03T01:50:49;3.30;99.90
1359;DHT22;673;48.098;14.422;2023-04-03T01:53:16;3.30;99.90
1359;DHT22;673;48.098;14.422;2023-04-03T01:55:43;3.30;99.90
1359;DHT22;673;48.098;14.422;2023-04-03T01:58:10;3.30;99.90
1359;DHT22;673;48.098;14.422;2023-04-03T02:00:37;3.30;99.90
1359;DHT22;673;48.098;14.422;2023-04-03T02:03:04;3.30;99.90
1359;DHT22;673;48.098;14.422;2023-04-03T02:05:32;3.30;99.90
1359;DHT22;673;48.098;14.422;2023-04-03T02:08:00;3.30;99.90
1359;DHT22;673;48.098;14.422;2023-04-03T02:10:27;3.20;99.90
1359;DHT22;673;48.098;14.422;2023-04-03T02:12:55;3.20;99.90
1359;DHT22;673;48.098;14.422;2023-04-03T02:15:21;3.20;99.90
1359;DHT22;673;48.098;14.422;2023-04-03T02:17:48;3.20;99.90
1359;DHT22;673;48.098;14.422;2023-04-03T02:20:16;3.20;99.90
1359;DHT22;673;48.098;14.422;2023-04-03T02:22:42;3.10;99.90
1359;DHT22;673;48.098;14.422;2023-04-03T02:25:11;3.10;99.90
1359;DHT22;673;48.098;14.422;2023-04-03T02:27:38;3.20;99.90
1359;DHT22;673;48.098;14.422;2023-04-03T02:30:06;3.20;99.90
1359;DHT22;673;48.098;14.422;2023-04-03T02:32:35;3.10;99.90
1359;DHT22;673;48.098;14.422;2023-04-03T02:35:02;3.20;99.90
1359;DHT22;673;48.098;14.422;2023-04-03T02:37:29;3.20;99.90
1359;DHT22;673;48.098;14.422;2023-04-03T02:39:56;3.10;99.90
1359;DHT22;673;48.098;14.422;2023-04-03T02:42:24;3.20;99.90
1359;DHT22;673;48.098;14.422;2023-04-03T02:44:51;3.20;99.90
1359;DHT22;673;48.098;14.422;2023-04-03T02:47:18;3.20;99.90
1359;DHT22;673;48.098;14.422;2023-04-03T02:49:45;3.20;99.90
1359;DHT22;673;48.098;14.422;2023-04-03T02:52:12;3.30;99.90
1359;DHT22;673;48.098;14.422;2023-04-03T02:54:40;3.20;99.90
1359;DHT22;673;48.098;14.422;2023-04-03T02:57:07;3.10;99.90
1359;DHT22;673;48.098;14.422;2023-04-03T02:59:36;3.20;99.90
1359;DHT22;673;48.098;14.422;2023-04-03T03:02:06;3.20;99.90
1359;DHT22;673;48.098;14.422;2023-04-03T03:04:33;3.20;99.90
1359;DHT22;673;48.098;14.422;2023-04-03T03:07:00;3.20;99.90
1359;DHT22;673;48.098;14.422;2023-04-03T03:09:27;3.20;99.90
1359;DHT22;673;48.098;14.422;2023-04-03T03:11:55;3.30;99.90
1359;DHT22;673;48.098;14.422;2023-04-03T03:14:22;3.20;99.90
1359;DHT22;673;48.098;14.422;2023-04-03T03:16:50;3.20;99.90
1359;DHT22;673;48.098;14.422;2023-04-03T03:19:17;3.20;99.90
1359;DHT22;673;48.098;14.422;2023-04-03T03:21:44;3.20;99.90
1359;DHT22;673;48.098;14.422;2023-04-03T03:24:11;3.20;99.90
1359;DHT22;673;48.098;14.422;2023-04-03T03:26:38;3.20;99.90
1359;DHT22;673;48.098;14.422;2023-04-03T03:29:05;3.20;99.90
1359;DHT22;673;48.098;14.422;2023-04-03T03:31:32;3.30;99.90
1359;DHT22;673;48.098;14.422;2023-04-03T03:34:00;3.20;99.90
1359;DHT22;673;48.098;14.422;2023-04-03T03:36:27;3.10;99.90
1359;DHT22;673;48.098;14.422;2023-04-03T03:38:54;3.10;99.90
1359;DHT22;673;48.098;14.422;2023-04-03T03:41:21;3.00;99.90
1359;DHT22;673;48.098;14.422;2023-04-03T03:43:48;3.10;99.90
1359;DHT22;673;48.098;14.422;2023-04-03T03:46:15;3.00;99.90
1359;DHT22;673;48.098;14.422;2023-04-03T03:48:43;3.00;99.90
1359;DHT22;673;48.098;14.422;2023-04-03T03:51:11;3.00;99.90
1359;DHT22;673;48.098;14.422;2023-04-03T03:53:38;3.00;99.90
1359;DHT22;673;48.098;14.422;2023-04-03T03:56:05;3.10;99.90
1359;DHT22;673;48.098;14.422;2023-04-03T03:58:32;3.00;99.90
1359;DHT22;673;48.098;14.422;2023-04-03T04:01:01;3.10;99.90
1359;DHT22;673;48.098;14.422;2023-04-03T04:03:28;3.00;99.90
1359;DHT22;673;48.098;14.422;2023-04-03T04:05:55;2.90;99.90
1359;DHT22;673;48.098;14.422;2023-04-03T04:08:24;3.00;99.90
1359;DHT22;673;48.098;14.422;2023-04-03T04:10:51;3.00;99.90
1359;DHT22;673;48.098;14.422;2023-04-03T04:13:18;3.00;99.90
1359;DHT22;673;48.098;14.422;2023-04-03T04:15:45;3.00;99.90
1359;DHT22;673;48.098;14.422;2023-04-03T04:18:12;3.00;99.90
1359;DHT22;673;48.098;14.422;2023-04-03T04:20:40;3.00;99.90
1359;DHT22;673;48.098;14.422;2023-04-03T04:23:07;2.90;99.90
1359;DHT22;673;48.098;14.422;2023-04-03T04:25:35;2.90;99.90
1359;DHT22;673;48.098;14.422;2023-04-03T04:28:02;3.00;99.90
1359;DHT22;673;48.098;14.422;2023-04-03T04:30:29;3.00;99.90
1359;DHT22;673;48.098;14.422;2023-04-03T04:32:56;3.00;99.90
1359;DHT22;673;48.098;14.422;2023-04-03T04:35:23;3.00;99.90
1359;DHT22;673;48.098;14.422;2023-04-03T04:37:50;2.90;99.90
1359;DHT22;673;48.098;14.422;2023-04-03T04:40:17;3.00;99.90
1359;DHT22;673;48.098;14.422;2023-04-03T04:42:45;2.90;99.90
1359;DHT22;673;48.098;14.422;2023-04-03T04:45:12;3.00;99.90
1359;DHT22;673;48.098;14.422;2023-04-03T04:47:40;3.00;99.90
1359;DHT22;673;48.098;14.422;2023-04-03T04:50:08;3.00;99.90
1359;DHT22;673;48.098;14.422;2023-04-03T04:52:35;3.00;99.90
1359;DHT22;673;48.098;14.422;2023-04-03T04:55:02;3.00;99.90
1359;DHT22;673;48.098;14.422;2023-04-03T04:57:29;2.90;99.90
1359;DHT22;673;48.098;14.422;2023-04-03T04:59:58;3.00;99.90
1359;DHT22;673;48.098;14.422;2023-04-03T05:02:25;3.00;99.90
1359;DHT22;673;48.098;14.422;2023-04-03T05:04:53;3.00;99.90
1359;DHT22;673;48.098;14.422;2023-04-03T05:07:20;3.00;99.90
1359;DHT22;673;48.098;14.422;2023-04-03T05:09:46;3.00;99.90
1359;DHT22;673;48.098;14.422;2023-04-03T05:12:13;3.00;99.90
1359;DHT22;673;48.098;14.422;2023-04-03T05:14:40;3.00;99.90
1359;DHT22;673;48.098;14.422;2023-04-03T05:17:09;3.00;99.90
1359;DHT22;673;48.098;14.422;2023-04-03T05:19:36;3.00;99.90
1359;DHT22;673;48.098;14.422;2023-04-03T05:22:02;3.10;99.90
1359;DHT22;673;48.098;14.422;2023-04-03T05:24:30;3.10;99.90
1359;DHT22;673;48.098;14.422;2023-04-03T05:26:56;3.00;99.90
1359;DHT22;673;48.098;14.422;2023-04-03T05:29:23;2.90;99.90
1359;DHT22;673;48.098;14.422;2023-04-03T05:31:50;3.00;99.90
1359;DHT22;673;48.098;14.422;2023-04-03T05:34:19;3.10;99.90
1359;DHT22;673;48.098;14.422;2023-04-03T05:36:46;3.20;99.90
1359;DHT22;673;48.098;14.422;2023-04-03T05:39:13;3.20;99.90
1359;DHT22;673;48.098;14.422;2023-04-03T05:41:40;3.20;99.90
1359;DHT22;673;48.098;14.422;2023-04-03T05:44:07;3.20;99.90
1359;DHT22;673;48.098;14.422;2023-04-03T05:46:34;3.20;99.90
1359;DHT22;673;48.098;14.422;2023-04-03T05:49:01;3.20;99.90
1359;DHT22;673;48.098;14.422;2023-04-03T05:51:33;3.30;99.90
1359;DHT22;673;48.098;14.422;2023-04-03T05:54:04;3.30;99.90
1359;DHT22;673;48.098;14.422;2023-04-03T05:56:32;3.30;99.90
1359;DHT22;673;48.098;14.422;2023-04-03T05:58:59;3.30;99.90
1359;DHT22;673;48.098;14.422;2023-04-03T06:01:26;3.30;99.90
1359;DHT22;673;48.098;14.422;2023-04-03T06:03:53;3.30;99.90
1359;DHT22;673;48.098;14.422;2023-04-03T06:06:21;3.30;99.90
1359;DHT22;673;48.098;14.422;2023-04-03T06:08:50;3.40;99.90
1359;DHT22;673;48.098;14.422;2023-04-03T06:11:17;3.40;99.90
1359;DHT22;673;48.098;14.422;2023-04-03T06:13:44;3.40;99.90
1359;DHT22;673;48.098;14.422;2023-04-03T06:16:12;3.40;99.90
1359;DHT22;673;48.098;14.422;2023-04-03T06:18:40;3.50;99.90
1359;DHT22;673;48.098;14.422;2023-04-03T06:21:08;3.40;99.90
1359;DHT22;673;48.098;14.422;2023-04-03T06:23:35;3.50;99.90
1359;DHT22;673;48.098;14.422;2023-04-03T06:26:03;3.50;99.90
1359;DHT22;673;48.098;14.422;2023-04-03T06:28:31;3.50;99.90
1359;DHT22;673;48.098;14.422;2023-04-03T06:30:58;3.40;99.90
1359;DHT22;673;48.098;14.422;2023-04-03T06:33:24;3.50;99.90
1359;DHT22;673;48.098;14.422;2023-04-03T06:35:56;3.40;99.90
1359;DHT22;673;48.098;14.422;2023-04-03T06:38:23;3.50;99.90
1359;DHT22;673;48.098;14.422;2023-04-03T06:40:51;3.50;99.90
1359;DHT22;673;48.098;14.422;2023-04-03T06:43:19;3.60;99.90
1359;DHT22;673;48.098;14.422;2023-04-03T06:45:47;3.70;99.90
1359;DHT22;673;48.098;14.422;2023-04-03T06:48:14;3.80;99.90
1359;DHT22;673;48.098;14.422;2023-04-03T06:50:41;3.90;99.90
1359;DHT22;673;48.098;14.422;2023-04-03T06:53:09;4.20;99.90
1359;DHT22;673;48.098;14.422;2023-04-03T06:55:36;4.30;99.90
1359;DHT22;673;48.098;14.422;2023-04-03T06:58:03;4.30;99.90
1359;DHT22;673;48.098;14.422;2023-04-03T07:00:32;4.40;99.90
1359;DHT22;673;48.098;14.422;2023-04-03T07:02:59;4.30;99.90
1359;DHT22;673;48.098;14.422;2023-04-03T07:05:26;4.40;99.90
1359;DHT22;673;48.098;14.422;2023-04-03T07:07:53;4.40;99.90
1359;DHT22;673;48.098;14.422;2023-04-03T07:10:21;4.60;99.90
1359;DHT22;673;48.098;14.422;2023-04-03T07:12:48;4.60;99.90
1359;DHT22;673;48.098;14.422;2023-04-03T07:15:15;4.70;99.90
1359;DHT22;673;48.098;14.422;2023-04-03T07:17:43;4.50;99.90
1359;DHT22;673;48.098;14.422;2023-04-03T07:20:10;4.70;99.90
1359;DHT22;673;48.098;14.422;2023-04-03T07:22:38;4.50;99.90
1359;DHT22;673;48.098;14.422;2023-04-03T07:25:06;4.50;99.90
1359;DHT22;673;48.098;14.422;2023-04-03T07:27:33;4.60;99.90
1359;DHT22;673;48.098;14.422;2023-04-03T07:30:00;4.70;99.90
1359;DHT22;673;48.098;14.422;2023-04-03T07:32:28;4.60;99.90
1359;DHT22;673;48.098;14.422;2023-04-03T07:34:57;4.70;99.90
1359;DHT22;673;48.098;14.422;2023-04-03T07:37:24;4.70;99.90
1359;DHT22;673;48.098;14.422;2023-04-03T07:39:51;4.70;99.90
1359;DHT22;673;48.098;14.422;2023-04-03T07:42:18;4.70;99.90
1359;DHT22;673;48.098;14.422;2023-04-03T07:44:45;4.70;99.90
1359;DHT22;673;48.098;14.422;2023-04-03T07:47:12;4.80;99.90
1359;DHT22;673;48.098;14.422;2023-04-03T07:49:41;4.90;99.90
1359;DHT22;673;48.098;14.422;2023-04-03T07:52:10;4.80;99.90
1359;DHT22;673;48.098;14.422;2023-04-03T07:54:38;4.60;99.90
1359;DHT22;673;48.098;14.422;2023-04-03T07:57:04;4.70;99.90
1359;DHT22;673;48.098;14.422;2023-04-03T07:59:32;4.70;99.90
1359;DHT22;673;48.098;14.422;2023-04-03T08:01:59;4.50;99.90
1359;DHT22;673;48.098;14.422;2023-04-03T08:04:26;4.50;99.90
1359;DHT22;673;48.098;14.422;2023-04-03T08:06:53;4.70;99.90
1359;DHT22;673;48.098;14.422;2023-04-03T08:09:21;4.70;99.90
1359;DHT22;673;48.098;14.422;2023-04-03T08:11:48;4.60;99.90
1359;DHT22;673;48.098;14.422;2023-04-03T08:14:18;4.40;99.90
1359;DHT22;673;48.098;14.422;2023-04-03T08:16:46;4.30;99.90
1359;DHT22;673;48.098;14.422;2023-04-03T08:19:14;4.40;99.90
1359;DHT22;673;48.098;14.422;2023-04-03T08:21:43;4.10;99.90
1359;DHT22;673;48.098;14.422;2023-04-03T08:24:11;3.80;99.90
1359;DHT22;673;48.098;14.422;2023-04-03T08:26:39;3.60;99.90
1359;DHT22;673;48.098;14.422;2023-04-03T08:29:06;3.40;99.90
1359;DHT22;673;48.098;14.422;2023-04-03T08:31:33;3.40;99.90
1359;DHT22;673;48.098;14.422;2023-04-03T08:34:00;3.30;99.90
1359;DHT22;673;48.098;14.422;2023-04-03T08:36:29;3.50;99.90
1359;DHT22;673;48.098;14.422;2023-04-03T08:38:56;3.40;99.90
1359;DHT22;673;48.098;14.422;2023-04-03T08:41:29;3.40;99.90
1359;DHT22;673;48.098;14.422;2023-04-03T08:44:03;3.50;99.90
1359;DHT22;673;48.098;14.422;2023-04-03T08:46:43;3.60;99.90
1359;DHT22;673;48.098;14.422;2023-04-03T08:49:18;3.70;99.90
1359;DHT22;673;48.098;14.422;2023-04-03T08:51:49;3.50;99.90
1359;DHT22;673;48.098;14.422;2023-04-03T08:54:26;3.40;99.90
1359;DHT22;673;48.098;14.422;2023-04-03T08:56:55;3.20;99.90
1359;DHT22;673;48.098;14.422;2023-04-03T08:59:27;3.10;99.90
1359;DHT22;673;48.098;14.422;2023-04-03T09:01:57;3.00;99.90
1359;DHT22;673;48.098;14.422;2023-04-03T09:04:26;3.10;99.90
1359;DHT22;673;48.098;14.422;2023-04-03T09:06:57;3.10;99.90
1359;DHT22;673;48.098;14.422;2023-04-03T09:09:32;3.10;99.90
1359;DHT22;673;48.098;14.422;2023-04-03T09:12:06;3.20;99.90
1359;DHT22;673;48.098;14.422;2023-04-03T09:14:39;3.30;99.90
1359;DHT22;673;48.098;14.422;2023-04-03T09:17:13;3.60;99.90
1359;DHT22;673;48.098;14.422;2023-04-03T09:19:46;3.80;99.90
1359;DHT22;673;48.098;14.422;2023-04-03T09:22:20;3.80;99.90
1359;DHT22;673;48.098;14.422;2023-04-03T09:24:52;4.20;99.90
1359;DHT22;673;48.098;14.422;2023-04-03T09:27:22;4.50;99.90
1359;DHT22;673;48.098;14.422;2023-04-03T09:29:53;4.60;99.90
1359;DHT22;673;48.098;14.422;2023-04-03T09:32:25;4.70;99.90
1359;DHT22;673;48.098;14.422;2023-04-03T09:34:53;4.80;99.90
1359;DHT22;673;48.098;14.422;2023-04-03T09:37:38;4.90;99.90
1359;DHT22;673;48.098;14.422;2023-04-03T09:40:31;4.90;99.90
1359;DHT22;673;48.098;14.422;2023-04-03T09:43:01;4.90;99.90
1359;DHT22;673;48.098;14.422;2023-04-03T09:45:32;4.90;99.90
1359;DHT22;673;48.098;14.422;2023-04-03T09:48:12;4.90;99.90
1359;DHT22;673;48.098;14.422;2023-04-03T09:50:57;4.90;99.90
1359;DHT22;673;48.098;14.422;2023-04-03T09:53:34;4.90;99.90
1359;DHT22;673;48.098;14.422;2023-04-03T09:56:04;4.90;99.90
1359;DHT22;673;48.098;14.422;2023-04-03T09:58:35;4.90;99.90
1359;DHT22;673;48.098;14.422;2023-04-03T10:01:05;4.90;99.90
1359;DHT22;673;48.098;14.422;2023-04-03T10:03:33;5.10;99.90
1359;DHT22;673;48.098;14.422;2023-04-03T10:06:01;4.80;98.70
1359;DHT22;673;48.098;14.422;2023-04-03T10:08:30;5.00;99.50
1359;DHT22;673;48.098;14.422;2023-04-03T10:11:14;5.10;98.50
1359;DHT22;673;48.098;14.422;2023-04-03T10:13:56;5.30;99.10
1359;DHT22;673;48.098;14.422;2023-04-03T10:16:29;5.60;98.40
1359;DHT22;673;48.098;14.422;2023-04-03T10:19:22;5.40;98.50
1359;DHT22;673;48.098;14.422;2023-04-03T10:21:57;5.30;96.50
1359;DHT22;673;48.098;14.422;2023-04-03T10:24:30;5.20;96.70
1359;DHT22;673;48.098;14.422;2023-04-03T10:27:05;5.20;96.60
1359;DHT22;673;48.098;14.422;2023-04-03T10:29:39;5.10;95.70
1359;DHT22;673;48.098;14.422;2023-04-03T10:32:30;5.10;97.10
1359;DHT22;673;48.098;14.422;2023-04-03T10:35:03;5.20;95.20
1359;DHT22;673;48.098;14.422;2023-04-03T10:37:43;5.20;93.80
1359;DHT22;673;48.098;14.422;2023-04-03T10:40:25;5.10;94.40
1359;DHT22;673;48.098;14.422;2023-04-03T10:43:04;5.50;93.40
1359;DHT22;673;48.098;14.422;2023-04-03T10:45:53;5.60;92.50
1359;DHT22;673;48.098;14.422;2023-04-03T10:48:34;5.70;93.10
1359;DHT22;673;48.098;14.422;2023-04-03T10:51:11;5.90;92.90
1359;DHT22;673;48.098;14.422;2023-04-03T10:53:44;5.90;91.20
1359;DHT22;673;48.098;14.422;2023-04-03T10:56:19;5.50;90.20
1359;DHT22;673;48.098;14.422;2023-04-03T10:58:50;5.70;92.50
1359;DHT22;673;48.098;14.422;2023-04-03T11:01:22;5.60;91.90
1359;DHT22;673;48.098;14.422;2023-04-03T11:03:54;5.60;92.30
1359;DHT22;673;48.098;14.422;2023-04-03T11:06:26;5.70;91.00
1359;DHT22;673;48.098;14.422;2023-04-03T11:08:58;5.90;92.70
1359;DHT22;673;48.098;14.422;2023-04-03T11:11:31;6.00;91.40
1359;DHT22;673;48.098;14.422;2023-04-03T11:14:02;5.80;90.40
1359;DHT22;673;48.098;14.422;2023-04-03T11:16:33;6.00;90.10
1359;DHT22;673;48.098;14.422;2023-04-03T11:19:08;6.50;92.60
1359;DHT22;673;48.098;14.422;2023-04-03T11:21:42;6.40;92.10
1359;DHT22;673;48.098;14.422;2023-04-03T11:24:17;6.20;92.60
1359;DHT22;673;48.098;14.422;2023-04-03T11:26:47;6.20;92.00
1359;DHT22;673;48.098;14.422;2023-04-03T11:29:19;6.30;93.00
1359;DHT22;673;48.098;14.422;2023-04-03T11:32:05;6.10;91.80
1359;DHT22;673;48.098;14.422;2023-04-03T11:34:37;6.20;91.40
1359;DHT22;673;48.098;14.422;2023-04-03T11:37:16;6.00;91.80
1359;DHT22;673;48.098;14.422;2023-04-03T11:39:51;5.70;91.50
1359;DHT22;673;48.098;14.422;2023-04-03T11:42:27;5.70;90.70
1359;DHT22;673;48.098;14.422;2023-04-03T11:45:16;5.90;90.80
1359;DHT22;673;48.098;14.422;2023-04-03T11:47:45;6.00;89.70
1359;DHT22;673;48.098;14.422;2023-04-03T11:50:32;6.10;90.00
1359;DHT22;673;48.098;14.422;2023-04-03T11:53:32;6.20;91.70
1359;DHT22;673;48.098;14.422;2023-04-03T11:59:19;5.70;90.40
1359;DHT22;673;48.098;14.422;2023-04-03T12:01:49;5.80;90.00
1359;DHT22;673;48.098;14.422;2023-04-03T12:04:18;5.70;90.80
1359;DHT22;673;48.098;14.422;2023-04-03T12:10:15;5.60;92.20
1359;DHT22;673;48.098;14.422;2023-04-03T12:12:56;5.70;90.40
1359;DHT22;673;48.098;14.422;2023-04-03T12:21:09;5.80;88.60
1359;DHT22;673;48.098;14.422;2023-04-03T12:23:59;5.70;90.10
1359;DHT22;673;48.098;14.422;2023-04-03T12:26:31;5.70;88.40
1359;DHT22;673;48.098;14.422;2023-04-03T12:29:02;5.80;86.20
1359;DHT22;673;48.098;14.422;2023-04-03T12:31:40;5.80;85.10
1359;DHT22;673;48.098;14.422;2023-04-03T12:34:44;5.70;84.10
1359;DHT22;673;48.098;14.422;2023-04-03T12:37:26;5.60;82.30
1359;DHT22;673;48.098;14.422;2023-04-03T12:40:09;5.60;85.50
1359;DHT22;673;48.098;14.422;2023-04-03T12:43:07;5.90;85.90
1359;DHT22;673;48.098;14.422;2023-04-03T12:45:41;5.70;89.50
1359;DHT22;673;48.098;14.422;2023-04-03T12:48:15;5.90;89.70
1359;DHT22;673;48.098;14.422;2023-04-03T12:50:44;6.00;90.90
1359;DHT22;673;48.098;14.422;2023-04-03T12:53:14;5.90;89.50
1359;DHT22;673;48.098;14.422;2023-04-03T12:55:43;5.70;87.50
1359;DHT22;673;48.098;14.422;2023-04-03T12:58:16;5.90;86.40
1359;DHT22;673;48.098;14.422;2023-04-03T13:00:43;5.80;86.50
1359;DHT22;673;48.098;14.422;2023-04-03T13:03:22;6.20;85.10
1359;DHT22;673;48.098;14.422;2023-04-03T13:05:59;6.00;82.30
1359;DHT22;673;48.098;14.422;2023-04-03T13:08:27;5.90;79.30
1359;DHT22;673;48.098;14.422;2023-04-03T13:10:58;5.80;77.70
1359;DHT22;673;48.098;14.422;2023-04-03T13:13:28;6.00;80.70
1359;DHT22;673;48.098;14.422;2023-04-03T13:15:56;5.90;75.30
1359;DHT22;673;48.098;14.422;2023-04-03T13:18:26;6.10;79.20
1359;DHT22;673;48.098;14.422;2023-04-03T13:20:58;6.10;78.90
1359;DHT22;673;48.098;14.422;2023-04-03T13:23:27;6.00;77.90
1359;DHT22;673;48.098;14.422;2023-04-03T13:25:56;6.00;78.30
1359;DHT22;673;48.098;14.422;2023-04-03T13:28:27;6.10;78.90
1359;DHT22;673;48.098;14.422;2023-04-03T13:30:59;5.90;80.50
1359;DHT22;673;48.098;14.422;2023-04-03T13:33:30;5.60;86.50
1359;DHT22;673;48.098;14.422;2023-04-03T13:36:03;5.50;85.40
1359;DHT22;673;48.098;14.422;2023-04-03T13:38:31;5.40;82.30
1359;DHT22;673;48.098;14.422;2023-04-03T13:41:01;5.50;83.20
1359;DHT22;673;48.098;14.422;2023-04-03T13:43:31;5.70;84.60
1359;DHT22;673;48.098;14.422;2023-04-03T13:46:19;5.80;82.50
1359;DHT22;673;48.098;14.422;2023-04-03T13:48:50;5.80;81.90
1359;DHT22;673;48.098;14.422;2023-04-03T13:51:23;5.80;76.80
1359;DHT22;673;48.098;14.422;2023-04-03T13:53:53;5.80;78.10
1359;DHT22;673;48.098;14.422;2023-04-03T13:56:27;5.90;76.30
1359;DHT22;673;48.098;14.422;2023-04-03T13:59:05;5.90;79.50
1359;DHT22;673;48.098;14.422;2023-04-03T14:01:42;5.80;77.00
1359;DHT22;673;48.098;14.422;2023-04-03T14:04:16;6.10;78.70
1359;DHT22;673;48.098;14.422;2023-04-03T14:06:44;6.70;78.20
1359;DHT22;673;48.098;14.422;2023-04-03T14:09:11;6.70;78.00
1359;DHT22;673;48.098;14.422;2023-04-03T14:11:39;6.20;77.10
1359;DHT22;673;48.098;14.422;2023-04-03T14:14:14;6.00;81.90
1359;DHT22;673;48.098;14.422;2023-04-03T14:16:44;5.80;85.00
1359;DHT22;673;48.098;14.422;2023-04-03T14:19:18;5.80;85.20
1359;DHT22;673;48.098;14.422;2023-04-03T14:21:46;5.70;83.30
1359;DHT22;673;48.098;14.422;2023-04-03T14:24:13;5.60;85.00
1359;DHT22;673;48.098;14.422;2023-04-03T14:26:42;5.60;84.10
1359;DHT22;673;48.098;14.422;2023-04-03T14:29:12;5.40;84.10
1359;DHT22;673;48.098;14.422;2023-04-03T14:31:39;5.60;81.80
1359;DHT22;673;48.098;14.422;2023-04-03T14:34:07;5.70;83.70
1359;DHT22;673;48.098;14.422;2023-04-03T14:36:34;5.80;85.60
1359;DHT22;673;48.098;14.422;2023-04-03T14:39:03;5.70;82.20
1359;DHT22;673;48.098;14.422;2023-04-03T14:41:30;5.70;80.90
1359;DHT22;673;48.098;14.422;2023-04-03T14:43:57;5.90;86.50
1359;DHT22;673;48.098;14.422;2023-04-03T14:46:28;5.90;73.60
1359;DHT22;673;48.098;14.422;2023-04-03T14:48:56;5.80;71.20
1359;DHT22;673;48.098;14.422;2023-04-03T14:51:23;6.00;78.10
1359;DHT22;673;48.098;14.422;2023-04-03T14:53:50;5.50;73.10
1359;DHT22;673;48.098;14.422;2023-04-03T14:56:19;5.60;77.70
1359;DHT22;673;48.098;14.422;2023-04-03T14:58:48;5.50;78.60
1359;DHT22;673;48.098;14.422;2023-04-03T15:01:16;5.20;78.90
1359;DHT22;673;48.098;14.422;2023-04-03T15:03:45;5.00;78.70
1359;DHT22;673;48.098;14.422;2023-04-03T15:06:12;4.90;81.10
1359;DHT22;673;48.098;14.422;2023-04-03T15:08:41;4.90;80.20
1359;DHT22;673;48.098;14.422;2023-04-03T15:11:09;4.80;76.20
1359;DHT22;673;48.098;14.422;2023-04-03T15:13:37;4.70;75.60
1359;DHT22;673;48.098;14.422;2023-04-03T15:16:04;4.90;78.60
1359;DHT22;673;48.098;14.422;2023-04-03T15:18:35;5.00;76.30
1359;DHT22;673;48.098;14.422;2023-04-03T15:21:05;5.00;74.10
1359;DHT22;673;48.098;14.422;2023-04-03T15:23:32;4.90;77.70
1359;DHT22;673;48.098;14.422;2023-04-03T15:25:59;4.80;78.40
1359;DHT22;673;48.098;14.422;2023-04-03T15:28:30;4.70;81.70
1359;DHT22;673;48.098;14.422;2023-04-03T15:30:57;4.70;85.60
1359;DHT22;673;48.098;14.422;2023-04-03T15:33:24;4.70;86.80
1359;DHT22;673;48.098;14.422;2023-04-03T15:35:51;4.70;88.00
1359;DHT22;673;48.098;14.422;2023-04-03T15:38:19;4.70;82.70
1359;DHT22;673;48.098;14.422;2023-04-03T15:40:47;4.70;85.40
1359;DHT22;673;48.098;14.422;2023-04-03T15:43:14;4.70;81.10
1359;DHT22;673;48.098;14.422;2023-04-03T15:45:41;4.70;81.00
1359;DHT22;673;48.098;14.422;2023-04-03T15:48:09;4.70;80.50
1359;DHT22;673;48.098;14.422;2023-04-03T15:50:37;4.70;82.20
1359;DHT22;673;48.098;14.422;2023-04-03T15:53:04;4.70;79.50
1359;DHT22;673;48.098;14.422;2023-04-03T15:55:36;4.70;78.60
1359;DHT22;673;48.098;14.422;2023-04-03T15:58:03;4.60;79.50
1359;DHT22;673;48.098;14.422;2023-04-03T16:00:32;4.60;81.60
1359;DHT22;673;48.098;14.422;2023-04-03T16:03:00;4.60;83.00
1359;DHT22;673;48.098;14.422;2023-04-03T16:05:30;4.60;84.00
1359;DHT22;673;48.098;14.422;2023-04-03T16:07:58;4.50;83.30
1359;DHT22;673;48.098;14.422;2023-04-03T16:10:26;4.40;84.90
1359;DHT22;673;48.098;14.422;2023-04-03T16:12:55;4.40;84.60
1359;DHT22;673;48.098;14.422;2023-04-03T16:15:22;4.40;85.00
1359;DHT22;673;48.098;14.422;2023-04-03T16:17:50;4.30;86.60
1359;DHT22;673;48.098;14.422;2023-04-03T16:20:17;4.20;88.50
1359;DHT22;673;48.098;14.422;2023-04-03T16:22:48;4.30;88.50
1359;DHT22;673;48.098;14.422;2023-04-03T16:25:15;4.30;88.30
1359;DHT22;673;48.098;14.422;2023-04-03T16:27:42;4.20;87.30
1359;DHT22;673;48.098;14.422;2023-04-03T16:30:11;4.10;85.10
1359;DHT22;673;48.098;14.422;2023-04-03T16:32:38;4.00;87.40
1359;DHT22;673;48.098;14.422;2023-04-03T16:35:06;3.90;91.10
1359;DHT22;673;48.098;14.422;2023-04-03T16:37:34;3.70;93.70
1359;DHT22;673;48.098;14.422;2023-04-03T16:40:01;3.40;95.40
1359;DHT22;673;48.098;14.422;2023-04-03T16:42:28;3.40;96.70
1359;DHT22;673;48.098;14.422;2023-04-03T16:44:55;3.30;96.40
1359;DHT22;673;48.098;14.422;2023-04-03T16:47:25;3.20;97.10